createdAt,value
2019-02-25T00:01:43.943Z,67.28
2019-02-25T00:04:14.836Z,67.29
2019-02-25T00:06:45.865Z,67.82
2019-02-25T00:09:16.704Z,68.00
2019-02-25T00:11:47.610Z,68.32
2019-02-25T00:14:18.381Z,68.24
2019-02-25T00:16:49.534Z,69.12
2019-02-25T00:19:20.456Z,69.06
2019-02-25T00:21:51.443Z,68.98
2019-02-25T00:24:22.243Z,68.59
2019-02-25T00:26:53.219Z,67.90
2019-02-25T00:29:24.018Z,67.75
2019-02-25T00:31:55.014Z,68.02
2019-02-25T00:34:25.876Z,68.42
2019-02-25T00:36:56.779Z,69.05
2019-02-25T00:39:27.545Z,68.69
2019-02-25T00:41:58.536Z,68.39
2019-02-25T00:44:29.550Z,68.87
2019-02-25T00:47:00.886Z,68.87
2019-02-25T00:49:31.827Z,69.21
2019-02-25T00:52:02.999Z,68.95
2019-02-25T00:54:33.918Z,69.08
2019-02-25T00:57:04.902Z,69.45
2019-02-25T00:59:35.683Z,68.98
2019-02-25T01:02:07.069Z,68.61
2019-02-25T01:04:38.070Z,68.53
2019-02-25T01:07:09.050Z,68.92
2019-02-25T01:09:39.847Z,69.26
2019-02-25T01:12:11.735Z,68.86
2019-02-25T01:14:42.534Z,69.79
2019-02-25T01:17:13.614Z,69.69
2019-02-25T01:19:44.429Z,69.66
2019-02-25T01:22:15.419Z,69.48
2019-02-25T01:24:46.214Z,69.95
2019-02-25T01:27:17.092Z,70.03
2019-02-25T01:29:47.979Z,69.80
2019-02-25T01:32:18.957Z,69.92
2019-02-25T01:34:49.739Z,70.17
2019-02-25T01:37:20.624Z,70.28
2019-02-25T01:39:51.511Z,70.35
2019-02-25T01:42:22.417Z,70.37
2019-02-25T01:44:53.288Z,70.47
2019-02-25T01:47:24.479Z,70.51
2019-02-25T01:49:55.430Z,70.67
2019-02-25T01:52:26.266Z,71.27
2019-02-25T01:54:57.049Z,71.78
2019-02-25T01:57:27.950Z,71.20
2019-02-25T01:59:58.735Z,71.14
2019-02-25T02:02:29.912Z,70.53
2019-02-25T02:05:00.709Z,70.17
2019-02-25T02:07:31.590Z,70.29
2019-02-25T02:10:02.377Z,70.81
2019-02-25T02:12:33.695Z,71.00
2019-02-25T02:15:05.195Z,70.54
2019-02-25T02:17:37.098Z,70.74
2019-02-25T02:20:08.282Z,70.65
2019-02-25T02:22:39.267Z,70.95
2019-02-25T02:25:10.683Z,70.47
2019-02-25T02:27:42.254Z,71.30
2019-02-25T02:30:15.632Z,71.16
2019-02-25T02:32:46.612Z,71.59
2019-02-25T02:35:18.513Z,71.61
2019-02-25T02:37:49.579Z,71.69
2019-02-25T02:40:20.407Z,71.85
2019-02-25T02:42:53.167Z,71.36
2019-02-25T02:45:53.712Z,71.67
2019-02-25T02:48:34.086Z,71.22
2019-02-25T02:51:05.017Z,70.88
2019-02-25T02:53:36.073Z,71.07
2019-02-25T02:56:06.981Z,71.41
2019-02-25T02:58:39.720Z,71.24
2019-02-25T03:01:10.518Z,70.79
2019-02-25T03:03:41.687Z,71.34
2019-02-25T03:06:12.480Z,71.80
2019-02-25T03:08:43.371Z,71.20
2019-02-25T03:11:14.277Z,71.66
2019-02-25T03:13:45.239Z,72.46
2019-02-25T03:16:16.045Z,71.84
2019-02-25T03:18:46.944Z,72.29
2019-02-25T03:21:17.806Z,71.82
2019-02-25T03:23:48.690Z,71.84
2019-02-25T03:26:19.494Z,73.00
2019-02-25T03:28:50.363Z,73.27
2019-02-25T03:31:21.167Z,72.84
2019-02-25T03:33:53.118Z,73.38
2019-02-25T03:36:24.077Z,73.19
2019-02-25T03:38:55.071Z,72.46
2019-02-25T03:41:25.881Z,72.71
2019-02-25T03:43:56.918Z,72.88
2019-02-25T03:46:28.732Z,72.28
2019-02-25T03:48:59.514Z,72.33
2019-02-25T03:51:30.417Z,72.09
2019-02-25T03:54:01.405Z,72.10
2019-02-25T03:56:32.375Z,71.73
2019-02-25T03:59:03.424Z,72.09
2019-02-25T04:01:34.377Z,71.76
2019-02-25T04:04:05.551Z,71.59
2019-02-25T04:06:36.454Z,70.95
2019-02-25T04:09:07.856Z,70.60
2019-02-25T04:11:38.731Z,70.84
2019-02-25T04:14:09.746Z,70.92
2019-02-25T04:16:40.965Z,70.67
2019-02-25T04:19:11.806Z,71.46
2019-02-25T04:21:43.786Z,71.62
2019-02-25T04:24:14.694Z,71.85
2019-02-25T04:26:45.496Z,71.74
2019-02-25T04:29:17.107Z,71.19
2019-02-25T04:31:48.139Z,71.73
2019-02-25T04:34:19.082Z,71.87
2019-02-25T04:36:49.975Z,72.23
2019-02-25T04:39:20.864Z,72.55
2019-02-25T04:41:51.559Z,72.82
2019-02-25T04:44:22.558Z,72.80
2019-02-25T04:46:53.531Z,73.16
2019-02-25T04:49:24.419Z,72.58
2019-02-25T04:51:55.185Z,72.91
2019-02-25T04:54:26.069Z,72.91
2019-02-25T04:56:56.960Z,72.97
2019-02-25T04:59:27.869Z,72.60
2019-02-25T05:01:58.641Z,73.11
2019-02-25T05:04:29.541Z,72.78
2019-02-25T05:07:00.315Z,72.81
2019-02-25T05:09:31.191Z,73.07
2019-02-25T05:12:02.081Z,72.96
2019-02-25T05:14:33.190Z,72.71
2019-02-25T05:17:08.992Z,72.65
2019-02-25T05:19:47.884Z,73.23
2019-02-25T05:22:20.289Z,72.74
2019-02-25T05:24:51.172Z,72.47
2019-02-25T05:27:22.065Z,72.28
2019-02-25T05:29:53.659Z,72.38
2019-02-25T05:32:24.463Z,72.15
2019-02-25T05:34:55.362Z,72.26
2019-02-25T05:37:26.228Z,72.42
2019-02-25T05:39:57.328Z,72.35
2019-02-25T05:42:28.106Z,72.56
2019-02-25T05:44:58.970Z,72.48
2019-02-25T05:47:29.685Z,72.87
2019-02-25T05:50:01.214Z,73.25
2019-02-25T05:52:32.065Z,73.67
2019-02-25T05:55:02.885Z,73.23
2019-02-25T05:57:34.747Z,72.81
2019-02-25T06:00:06.515Z,73.01
2019-02-25T06:02:37.360Z,72.95
2019-02-25T06:05:08.424Z,72.59
2019-02-25T06:07:39.235Z,72.52
2019-02-25T06:10:10.611Z,72.77
2019-02-25T06:12:41.510Z,72.72
2019-02-25T06:15:13.390Z,72.78
2019-02-25T06:17:44.343Z,73.16
2019-02-25T06:20:15.980Z,73.19
2019-02-25T06:22:47.000Z,72.82
2019-02-25T06:25:18.263Z,72.93
2019-02-25T06:27:49.091Z,73.02
2019-02-25T06:30:20.125Z,72.71
2019-02-25T06:32:51.166Z,73.44
2019-02-25T06:35:22.329Z,73.36
2019-02-25T06:37:53.349Z,73.48
2019-02-25T06:40:24.254Z,73.51
2019-02-25T06:42:55.035Z,72.80
2019-02-25T06:45:26.410Z,73.29
2019-02-25T06:47:57.214Z,72.91
2019-02-25T06:50:28.099Z,72.79
2019-02-25T06:52:58.646Z,72.12
2019-02-25T06:55:29.661Z,72.36
2019-02-25T06:58:00.458Z,71.68
2019-02-25T07:00:31.437Z,72.46
2019-02-25T07:03:02.124Z,71.98
2019-02-25T07:05:53.437Z,72.02
2019-02-25T07:08:45.982Z,72.03
2019-02-25T07:11:47.846Z,71.52
2019-02-25T07:14:36.399Z,72.08
2019-02-25T07:17:18.600Z,71.86
2019-02-25T07:20:11.479Z,72.36
2019-02-25T07:22:56.216Z,72.18
2019-02-25T07:25:39.790Z,72.46
2019-02-25T07:28:32.517Z,72.04
2019-02-25T07:31:21.043Z,71.93
2019-02-25T07:34:13.290Z,71.98
2019-02-25T07:37:03.172Z,71.53
2019-02-25T07:39:49.454Z,71.18
2019-02-25T07:42:45.294Z,71.05
2019-02-25T07:45:35.484Z,71.32
2019-02-25T07:48:20.764Z,70.89
2019-02-25T07:51:09.821Z,70.76
2019-02-25T07:53:55.628Z,70.22
2019-02-25T07:56:45.797Z,70.92
2019-02-25T07:59:35.680Z,69.72
2019-02-25T08:02:28.740Z,69.37
2019-02-25T08:05:24.266Z,69.22
2019-02-25T08:08:15.260Z,68.05
2019-02-25T08:11:17.368Z,68.06
2019-02-25T08:14:05.784Z,66.08
2019-02-25T08:16:55.666Z,63.97
2019-02-25T08:19:43.499Z,61.83
2019-02-25T08:22:45.613Z,64.95
2019-02-25T08:25:47.737Z,62.79
2019-02-25T08:28:32.599Z,59.78
2019-02-25T08:31:25.298Z,59.49
2019-02-25T08:34:18.597Z,60.75
2019-02-25T08:37:28.493Z,55.09
2019-02-25T08:40:33.887Z,57.83
2019-02-25T08:43:18.755Z,58.36
2019-02-25T08:46:14.609Z,54.75
2019-02-25T08:48:50.659Z,55.46
2019-02-25T08:51:21.506Z,55.63
2019-02-25T08:53:52.323Z,56.77
2019-02-25T08:56:23.231Z,56.41
2019-02-25T08:58:54.099Z,56.51
2019-02-25T09:01:25.034Z,52.95
2019-02-25T09:03:56.047Z,53.06
2019-02-25T09:06:26.933Z,52.07
2019-02-25T09:08:57.907Z,51.76
2019-02-25T09:11:28.731Z,53.49
2019-02-25T09:13:59.602Z,52.31
2019-02-25T09:16:30.362Z,51.92
2019-02-25T09:19:01.278Z,51.28
2019-02-25T09:21:32.295Z,51.64
2019-02-25T09:24:03.074Z,51.84
2019-02-25T09:26:35.110Z,50.11
2019-02-25T09:29:07.051Z,50.28
2019-02-25T09:31:37.839Z,47.17
2019-02-25T09:34:09.307Z,50.10
2019-02-25T09:36:40.142Z,48.89
2019-02-25T09:39:13.091Z,48.48
2019-02-25T09:41:44.041Z,49.78
2019-02-25T09:44:15.046Z,48.41
2019-02-25T09:46:45.943Z,47.92
2019-02-25T09:49:16.811Z,46.62
2019-02-25T09:51:47.605Z,47.19
2019-02-25T09:54:18.483Z,46.45
2019-02-25T09:56:49.279Z,46.38
2019-02-25T09:59:20.185Z,46.09
2019-02-25T10:01:50.964Z,45.26
2019-02-25T10:04:21.957Z,45.15
2019-02-25T10:07:01.980Z,44.44
2019-02-25T10:09:29.884Z,44.36
2019-02-25T10:11:58.084Z,44.54
2019-02-25T10:14:29.075Z,44.39
2019-02-25T10:16:59.874Z,44.29
2019-02-25T10:19:30.754Z,44.07
2019-02-25T10:22:01.532Z,43.79
2019-02-25T10:24:32.369Z,43.17
2019-02-25T10:27:03.983Z,44.23
2019-02-25T10:29:34.927Z,43.58
2019-02-25T10:32:06.581Z,44.11
2019-02-25T10:34:37.611Z,44.25
2019-02-25T10:37:08.973Z,44.10
2019-02-25T10:39:41.656Z,44.03
2019-02-25T10:42:13.454Z,43.03
2019-02-25T10:44:44.416Z,43.15
2019-02-25T10:47:17.205Z,42.88
2019-02-25T10:49:47.901Z,43.83
2019-02-25T10:52:18.747Z,44.04
2019-02-25T10:54:50.376Z,44.84
2019-02-25T10:57:26.442Z,43.19
2019-02-25T10:59:56.458Z,42.25
2019-02-25T11:02:27.370Z,41.90
2019-02-25T11:04:58.255Z,41.73
2019-02-25T11:07:30.735Z,41.35
2019-02-25T11:10:29.864Z,42.01
2019-02-25T11:13:02.124Z,42.19
2019-02-25T11:15:35.198Z,42.56
2019-02-25T11:18:08.223Z,42.65
2019-02-25T11:20:39.110Z,42.88
2019-02-25T11:23:12.302Z,41.80
2019-02-25T11:25:42.810Z,41.70
2019-02-25T11:28:24.805Z,40.81
2019-02-25T11:30:47.575Z,41.47
2019-02-25T11:33:18.872Z,40.88
2019-02-25T11:35:49.660Z,40.83
2019-02-25T11:38:20.847Z,40.48
2019-02-25T11:40:51.625Z,40.80
2019-02-25T11:43:22.600Z,40.85
2019-02-25T11:45:53.413Z,40.46
2019-02-25T11:48:24.316Z,40.60
2019-02-25T11:50:55.088Z,40.42
2019-02-25T11:53:26.054Z,41.16
2019-02-25T11:55:56.952Z,40.71
2019-02-25T11:58:28.045Z,41.14
2019-02-25T12:00:58.950Z,40.91
2019-02-25T12:03:29.935Z,40.94
2019-02-25T12:06:00.700Z,40.62
2019-02-25T12:08:31.592Z,40.52
2019-02-25T12:11:02.283Z,40.79
2019-02-25T12:13:33.180Z,40.43
2019-02-25T12:16:04.072Z,40.71
2019-02-25T12:18:34.985Z,40.39
2019-02-25T12:21:06.251Z,40.45
2019-02-25T12:23:37.084Z,40.52
2019-02-25T12:26:07.923Z,40.11
2019-02-25T12:28:38.920Z,40.98
2019-02-25T12:31:09.683Z,40.69
2019-02-25T12:33:40.621Z,41.39
2019-02-25T12:36:13.630Z,40.97
2019-02-25T12:38:44.140Z,40.42
2019-02-25T12:41:15.136Z,39.78
2019-02-25T12:43:46.132Z,40.37
2019-02-25T12:46:17.000Z,40.72
2019-02-25T12:48:48.201Z,41.29
2019-02-25T12:51:19.242Z,40.83
2019-02-25T12:53:50.039Z,41.73
2019-02-25T12:56:20.982Z,41.40
2019-02-25T12:58:51.764Z,40.50
2019-02-25T13:01:22.769Z,39.53
2019-02-25T13:03:53.628Z,39.36
2019-02-25T13:06:24.571Z,38.76
2019-02-25T13:08:55.403Z,39.97
2019-02-25T13:11:26.288Z,41.09
2019-02-25T13:13:57.088Z,40.12
2019-02-25T13:16:27.852Z,39.83
2019-02-25T13:18:58.658Z,39.26
2019-02-25T13:21:29.641Z,38.19
2019-02-25T13:24:02.009Z,38.57
2019-02-25T13:26:33.945Z,38.79
2019-02-25T13:29:05.415Z,39.00
2019-02-25T13:31:36.223Z,38.66
2019-02-25T13:34:08.233Z,38.50
2019-02-25T13:36:39.176Z,39.81
2019-02-25T13:39:10.343Z,38.68
2019-02-25T13:41:41.284Z,38.37
2019-02-25T13:44:12.169Z,38.21
2019-02-25T13:46:43.143Z,38.28
2019-02-25T13:49:14.019Z,37.44
2019-02-25T13:51:44.908Z,38.48
2019-02-25T13:54:15.675Z,37.85
2019-02-25T13:56:47.555Z,38.73
2019-02-25T13:59:18.527Z,38.90
2019-02-25T14:01:49.486Z,37.70
2019-02-25T14:04:20.298Z,37.46
2019-02-25T14:06:51.204Z,36.97
2019-02-25T14:09:22.201Z,36.98
2019-02-25T14:11:53.140Z,38.21
2019-02-25T14:14:24.128Z,37.98
2019-02-25T14:16:55.046Z,37.61
2019-02-25T14:19:25.941Z,38.46
2019-02-25T14:21:56.939Z,38.32
2019-02-25T14:24:27.817Z,37.79
2019-02-25T14:26:58.651Z,37.15
2019-02-25T14:29:30.042Z,37.22
2019-02-25T14:32:01.161Z,37.88
2019-02-25T14:34:32.025Z,36.87
2019-02-25T14:37:04.801Z,36.19
2019-02-25T14:39:38.063Z,36.68
2019-02-25T14:42:09.365Z,37.07
2019-02-25T14:44:43.344Z,36.17
2019-02-25T14:47:20.687Z,37.44
2019-02-25T14:49:46.475Z,35.95
2019-02-25T14:52:19.296Z,37.01
2019-02-25T14:54:50.716Z,35.97
2019-02-25T14:57:21.839Z,36.93
2019-02-25T14:59:52.784Z,35.93
2019-02-25T15:02:23.722Z,36.36
2019-02-25T15:04:54.670Z,36.53
2019-02-25T15:07:25.952Z,36.52
2019-02-25T15:09:57.939Z,36.50
2019-02-25T15:12:31.153Z,36.56
2019-02-25T15:15:02.697Z,37.25
2019-02-25T15:17:34.687Z,35.68
2019-02-25T15:20:06.076Z,36.34
2019-02-25T15:22:38.356Z,36.42
2019-02-25T15:25:10.816Z,36.35
2019-02-25T15:27:41.720Z,36.81
2019-02-25T15:30:16.672Z,37.03
2019-02-25T15:32:55.811Z,37.23
2019-02-25T15:35:20.708Z,37.20
2019-02-25T15:37:53.039Z,36.42
2019-02-25T15:40:25.061Z,36.18
2019-02-25T15:43:05.059Z,36.72
2019-02-25T15:45:38.337Z,37.47
2019-02-25T15:48:16.327Z,37.12
2019-02-25T15:50:48.412Z,36.82
2019-02-25T15:53:20.599Z,38.86
2019-02-25T15:55:51.776Z,41.21
2019-02-25T15:58:23.071Z,41.73
2019-02-25T16:00:54.182Z,40.37
2019-02-25T16:03:25.863Z,42.43
2019-02-25T16:06:01.048Z,44.76
2019-02-25T16:08:31.150Z,43.91
2019-02-25T16:11:02.312Z,45.27
2019-02-25T16:13:33.917Z,45.84
2019-02-25T16:16:07.127Z,47.06
2019-02-25T16:18:40.292Z,47.78
2019-02-25T16:21:11.211Z,48.05
2019-02-25T16:23:45.254Z,48.76
2019-02-25T16:26:17.798Z,49.03
2019-02-25T16:28:50.312Z,49.53
2019-02-25T16:31:21.428Z,50.32
2019-02-25T16:33:53.478Z,51.20
2019-02-25T16:36:26.215Z,51.69
2019-02-25T16:38:58.571Z,51.48
2019-02-25T16:41:32.393Z,51.29
2019-02-25T16:44:04.395Z,50.99
2019-02-25T16:46:38.713Z,51.11
2019-02-25T16:49:07.666Z,51.53
2019-02-25T16:51:38.792Z,52.33
2019-02-25T16:54:11.669Z,52.34
2019-02-25T16:56:42.213Z,52.74
2019-02-25T16:59:15.244Z,52.80
2019-02-25T17:01:46.096Z,53.18
2019-02-25T17:04:20.411Z,53.21
2019-02-25T17:06:51.224Z,53.25
2019-02-25T17:09:25.507Z,53.87
2019-02-25T17:11:58.099Z,54.13
2019-02-25T17:14:29.317Z,54.15
2019-02-25T17:17:00.206Z,54.02
2019-02-25T17:19:30.999Z,53.84
2019-02-25T17:22:04.470Z,54.35
2019-02-25T17:24:35.255Z,55.22
2019-02-25T17:27:08.957Z,55.12
2019-02-25T17:29:39.977Z,54.58
2019-02-25T17:32:12.249Z,55.27
2019-02-25T17:34:43.799Z,55.35
2019-02-25T17:37:15.372Z,56.09
2019-02-25T17:39:47.128Z,56.13
2019-02-25T17:42:19.744Z,56.57
2019-02-25T17:44:53.457Z,56.70
2019-02-25T17:47:26.791Z,56.84
2019-02-25T17:49:56.727Z,56.99
2019-02-25T17:52:28.519Z,56.53
2019-02-25T17:54:59.391Z,57.02
2019-02-25T17:57:32.938Z,57.16
2019-02-25T18:00:06.909Z,58.01
2019-02-25T18:02:40.118Z,58.80
2019-02-25T18:05:12.086Z,59.28
2019-02-25T18:07:46.342Z,59.49
2019-02-25T18:10:17.277Z,58.47
2019-02-25T18:12:48.415Z,59.19
2019-02-25T18:15:21.901Z,60.17
2019-02-25T18:17:53.529Z,60.33
2019-02-25T18:20:24.625Z,60.28
2019-02-25T18:22:55.447Z,60.12
2019-02-25T18:25:26.450Z,59.51
2019-02-25T18:27:57.514Z,59.75
2019-02-25T18:30:30.149Z,60.12
2019-02-25T18:33:04.633Z,59.69
2019-02-25T18:35:36.868Z,60.56
2019-02-25T18:38:09.603Z,59.57
2019-02-25T18:40:42.910Z,61.05
2019-02-25T18:43:13.530Z,61.12
2019-02-25T18:45:44.756Z,61.18
2019-02-25T18:48:16.945Z,60.21
2019-02-25T18:50:50.167Z,60.55
2019-02-25T18:53:21.242Z,61.12
2019-02-25T18:55:55.015Z,61.85
2019-02-25T18:58:26.847Z,62.12
2019-02-25T19:00:57.900Z,62.78
2019-02-25T19:03:33.132Z,62.50
2019-02-25T19:06:05.099Z,63.03
2019-02-25T19:08:36.045Z,63.93
2019-02-25T19:11:07.198Z,64.17
2019-02-25T19:13:38.038Z,64.04
2019-02-25T19:16:09.192Z,65.22
2019-02-25T19:18:41.383Z,65.77
2019-02-25T19:21:12.944Z,65.04
2019-02-25T19:23:45.908Z,64.44
2019-02-25T19:26:17.369Z,63.80
2019-02-25T19:28:50.135Z,63.60
2019-02-25T19:31:21.531Z,63.85
2019-02-25T19:33:52.511Z,64.64
2019-02-25T19:36:25.668Z,64.61
2019-02-25T19:38:56.827Z,64.75
2019-02-25T19:41:29.836Z,64.50
2019-02-25T19:44:03.300Z,64.67
2019-02-25T19:46:33.123Z,65.13
2019-02-25T19:49:04.212Z,65.50
2019-02-25T19:51:35.013Z,64.79
2019-02-25T19:54:07.073Z,65.37
2019-02-25T19:56:38.421Z,65.91
2019-02-25T19:59:09.443Z,66.65
2019-02-25T20:01:40.416Z,65.77
2019-02-25T20:04:12.315Z,66.17
2019-02-25T20:06:44.920Z,66.91
2019-02-25T20:09:17.744Z,68.59
2019-02-25T20:11:48.671Z,69.14
2019-02-25T20:14:19.812Z,69.44
2019-02-25T20:16:50.855Z,68.89
2019-02-25T20:19:22.368Z,67.74
2019-02-25T20:21:54.702Z,67.99
2019-02-25T20:24:26.295Z,68.52
2019-02-25T20:27:00.110Z,68.92
2019-02-25T20:29:29.885Z,68.45
2019-02-25T20:32:00.910Z,68.31
2019-02-25T20:34:32.224Z,67.96
2019-02-25T20:37:04.345Z,68.37
2019-02-25T20:39:35.917Z,68.01
2019-02-25T20:42:07.811Z,68.45
2019-02-25T20:44:39.634Z,67.80
2019-02-25T20:47:10.529Z,68.26
2019-02-25T20:49:41.404Z,67.96
2019-02-25T20:52:13.477Z,67.67
2019-02-25T20:54:47.520Z,68.54
2019-02-25T20:57:18.704Z,68.56
2019-02-25T20:59:51.006Z,68.31
2019-02-25T21:02:23.158Z,68.58
2019-02-25T21:04:55.174Z,69.40
2019-02-25T21:07:27.605Z,69.30
2019-02-25T21:10:00.798Z,69.43
2019-02-25T21:12:31.307Z,68.93
2019-02-25T21:15:02.196Z,69.49
2019-02-25T21:17:35.544Z,70.28
2019-02-25T21:20:10.130Z,70.08
2019-02-25T21:22:41.107Z,69.70
2019-02-25T21:25:11.899Z,70.30
2019-02-25T21:27:43.037Z,69.94
2019-02-25T21:30:15.416Z,70.36
2019-02-25T21:32:47.379Z,69.45
2019-02-25T21:35:19.064Z,69.31
2019-02-25T21:37:52.297Z,69.79
2019-02-25T21:40:24.644Z,69.53
2019-02-25T21:42:56.747Z,70.11
2019-02-25T21:45:31.748Z,70.30
2019-02-25T21:48:02.060Z,70.00
2019-02-25T21:50:35.463Z,70.09
2019-02-25T21:53:07.507Z,70.24
2019-02-25T21:55:38.519Z,70.40
2019-02-25T21:58:09.368Z,71.01
2019-02-25T22:00:40.850Z,70.67
2019-02-25T22:03:13.180Z,70.84
2019-02-25T22:05:44.354Z,71.57
2019-02-25T22:08:15.251Z,71.28
2019-02-25T22:10:46.243Z,71.81
2019-02-25T22:13:18.334Z,71.19
2019-02-25T22:15:49.655Z,72.31
2019-02-25T22:18:20.550Z,72.29
2019-02-25T22:20:51.588Z,72.32
2019-02-25T22:23:25.821Z,71.98
2019-02-25T22:25:54.959Z,71.61
2019-02-25T22:28:25.904Z,71.60
2019-02-25T22:30:56.784Z,71.40
2019-02-25T22:33:28.292Z,72.37
2019-02-25T22:36:00.347Z,72.51
2019-02-25T22:38:31.235Z,73.24
2019-02-25T22:41:02.329Z,73.04
2019-02-25T22:43:33.339Z,72.79
2019-02-25T22:46:05.436Z,72.71
2019-02-25T22:48:37.590Z,73.30
2019-02-25T22:51:09.242Z,72.50
2019-02-25T22:53:40.142Z,72.82
2019-02-25T22:56:13.357Z,72.59
2019-02-25T22:58:44.775Z,72.74
2019-02-25T23:01:18.032Z,72.79
2019-02-25T23:03:52.158Z,73.22
2019-02-25T23:06:23.612Z,73.12
2019-02-25T23:08:56.534Z,73.13
2019-02-25T23:11:27.490Z,73.17
2019-02-25T23:13:58.236Z,72.60
2019-02-25T23:16:29.205Z,73.34
2019-02-25T23:18:59.996Z,74.06
2019-02-25T23:21:32.155Z,74.48
2019-02-25T23:24:05.042Z,75.09
2019-02-25T23:26:35.999Z,74.24
2019-02-25T23:29:06.894Z,74.96
2019-02-25T23:31:37.879Z,75.92
2019-02-25T23:34:10.284Z,75.44
2019-02-25T23:36:44.792Z,74.62
2019-02-25T23:39:17.097Z,73.64
2019-02-25T23:41:48.655Z,73.21
2019-02-25T23:44:20.275Z,73.25
2019-02-25T23:46:55.234Z,73.44
2019-02-25T23:49:27.237Z,73.69
2019-02-25T23:51:57.149Z,73.68
2019-02-25T23:54:28.283Z,73.96
2019-02-25T23:57:00.160Z,73.19
2019-02-25T23:59:31.636Z,74.02
